createdAt,value
2018-06-13T00:00:29.324Z,52.40
2018-06-13T00:02:56.804Z,52.40
2018-06-13T00:07:51.513Z,52.60
2018-06-13T00:10:19.001Z,53.00
2018-06-13T00:12:46.496Z,52.40
2018-06-13T00:15:18.813Z,52.60
2018-06-13T00:17:46.652Z,52.20
2018-06-13T00:20:14.132Z,52.60
2018-06-13T00:22:41.616Z,52.60
2018-06-13T00:25:09.112Z,52.40
2018-06-13T00:27:36.605Z,52.60
2018-06-13T00:30:04.360Z,53.00
2018-06-13T00:32:31.880Z,52.60
2018-06-13T00:34:59.413Z,52.50
2018-06-13T00:37:26.850Z,52.80
2018-06-13T00:39:54.332Z,53.00
2018-06-13T00:42:21.822Z,53.00
2018-06-13T00:44:49.327Z,52.80
2018-06-13T00:47:16.812Z,52.80
2018-06-13T00:49:44.297Z,52.20
2018-06-13T00:52:11.776Z,52.40
2018-06-13T00:54:39.288Z,52.40
2018-06-13T00:57:06.777Z,52.50
2018-06-13T00:59:34.256Z,52.20
2018-06-13T01:02:01.752Z,52.50
2018-06-13T01:04:29.253Z,52.10
2018-06-13T01:06:56.871Z,52.20
2018-06-13T01:09:24.352Z,52.30
2018-06-13T01:11:51.844Z,52.10
2018-06-13T01:14:19.327Z,52.10
2018-06-13T01:16:46.816Z,52.30
2018-06-13T01:19:14.308Z,52.20
2018-06-13T01:21:41.806Z,52.20
2018-06-13T01:24:09.293Z,52.20
2018-06-13T01:26:36.764Z,52.20
2018-06-13T01:29:04.288Z,51.90
2018-06-13T01:31:31.769Z,52.00
2018-06-13T01:33:59.257Z,52.40
2018-06-13T01:36:26.756Z,52.50
2018-06-13T01:38:54.266Z,52.40
2018-06-13T01:43:48.974Z,52.30
2018-06-13T01:46:16.460Z,52.20
2018-06-13T01:48:44.953Z,52.20
2018-06-13T01:51:12.437Z,52.40
2018-06-13T01:53:39.923Z,52.10
2018-06-13T01:56:07.414Z,52.20
2018-06-13T01:58:34.908Z,52.20
2018-06-13T02:01:02.401Z,52.10
2018-06-13T02:03:29.905Z,52.00
2018-06-13T02:05:57.379Z,52.20
2018-06-13T02:08:24.867Z,52.20
2018-06-13T02:10:52.353Z,52.30
2018-06-13T02:13:19.858Z,51.90
2018-06-13T02:15:47.324Z,52.00
2018-06-13T02:20:42.045Z,52.00
2018-06-13T02:23:09.561Z,52.00
2018-06-13T02:25:37.048Z,51.80
2018-06-13T02:28:04.536Z,52.10
2018-06-13T02:30:32.027Z,52.10
2018-06-13T02:32:59.501Z,51.80
2018-06-13T02:35:26.988Z,52.00
2018-06-13T02:37:54.565Z,51.60
2018-06-13T02:40:22.065Z,51.70
2018-06-13T02:42:49.564Z,51.80
2018-06-13T02:45:17.047Z,52.70
2018-06-13T02:47:44.541Z,51.50
2018-06-13T02:50:12.045Z,52.30
2018-06-13T02:52:39.535Z,52.00
2018-06-13T02:55:07.104Z,51.80
2018-06-13T02:57:34.607Z,51.40
2018-06-13T03:00:02.105Z,51.80
2018-06-13T03:02:29.592Z,51.50
2018-06-13T03:04:57.092Z,51.40
2018-06-13T03:07:24.590Z,51.50
2018-06-13T03:09:52.101Z,52.00
2018-06-13T03:12:19.592Z,51.90
2018-06-13T03:14:47.077Z,52.00
2018-06-13T03:17:14.562Z,52.00
2018-06-13T03:19:42.035Z,51.30
2018-06-13T03:22:09.520Z,51.60
2018-06-13T03:24:37.006Z,51.80
2018-06-13T03:27:04.499Z,51.70
2018-06-13T03:29:32.117Z,51.90
2018-06-13T03:31:59.613Z,51.80
2018-06-13T03:34:27.081Z,51.60
2018-06-13T03:36:54.586Z,51.80
2018-06-13T03:39:22.078Z,51.80
2018-06-13T03:41:49.559Z,51.80
2018-06-13T03:44:17.035Z,51.30
2018-06-13T03:46:44.621Z,51.60
2018-06-13T03:49:12.121Z,51.30
2018-06-13T03:54:06.857Z,51.60
2018-06-13T03:56:34.344Z,50.90
2018-06-13T03:59:01.833Z,50.50
2018-06-13T04:01:29.334Z,50.50
2018-06-13T04:03:56.853Z,50.50
2018-06-13T04:06:29.772Z,50.20
2018-06-13T04:09:07.721Z,50.60
2018-06-13T04:11:38.849Z,50.50
2018-06-13T04:14:06.365Z,50.90
2018-06-13T04:16:34.066Z,51.00
2018-06-13T04:21:30.953Z,51.30
2018-06-13T04:23:58.416Z,51.60
2018-06-13T04:26:25.898Z,52.80
2018-06-13T04:28:53.417Z,50.30
2018-06-13T04:31:26.668Z,51.10
2018-06-13T04:33:54.349Z,51.80
2018-06-13T04:36:21.840Z,52.20
2018-06-13T04:38:49.331Z,48.80
2018-06-13T04:41:16.804Z,46.70
2018-06-13T04:43:44.321Z,45.70
2018-06-13T04:46:11.937Z,45.70
2018-06-13T04:48:39.421Z,45.80
2018-06-13T04:51:06.970Z,45.70
2018-06-13T04:53:34.521Z,46.40
2018-06-13T04:56:12.761Z,46.20
2018-06-13T04:58:40.320Z,46.90
2018-06-13T05:01:07.847Z,46.70
2018-06-13T05:03:35.363Z,46.70
2018-06-13T05:06:04.858Z,46.80
2018-06-13T05:08:32.341Z,47.60
2018-06-13T05:11:16.050Z,47.60
2018-06-13T05:13:43.670Z,47.70
2018-06-13T05:16:11.214Z,47.90
2018-06-13T05:18:38.752Z,48.00
2018-06-13T05:21:06.385Z,48.00
2018-06-13T05:23:34.069Z,48.00
2018-06-13T05:26:01.718Z,48.10
2018-06-13T05:28:29.349Z,48.20
2018-06-13T05:30:57.025Z,48.20
2018-06-13T05:35:51.934Z,48.30
2018-06-13T05:38:19.580Z,48.30
2018-06-13T05:40:47.183Z,48.70
2018-06-13T05:43:14.794Z,49.20
2018-06-13T05:45:42.425Z,48.80
2018-06-13T05:48:10.076Z,48.80
2018-06-13T05:50:37.814Z,49.00
2018-06-13T05:53:05.380Z,49.00
2018-06-13T05:55:33.042Z,49.10
2018-06-13T05:58:00.657Z,49.30
2018-06-13T06:00:28.269Z,49.30
2018-06-13T06:02:55.841Z,49.40
2018-06-13T06:05:23.401Z,49.30
2018-06-13T06:07:50.942Z,49.30
2018-06-13T06:10:18.575Z,49.30
2018-06-13T06:12:46.135Z,49.40
2018-06-13T06:15:13.691Z,49.40
2018-06-13T06:17:41.288Z,49.40
2018-06-13T06:20:08.805Z,49.50
2018-06-13T06:22:36.356Z,49.50
2018-06-13T06:25:03.957Z,50.10
2018-06-13T06:27:31.553Z,49.50
2018-06-13T06:29:59.082Z,49.60
2018-06-13T06:32:26.619Z,49.60
2018-06-13T06:34:54.144Z,49.60
2018-06-13T06:37:22.732Z,49.60
2018-06-13T06:39:50.289Z,49.70
2018-06-13T06:42:17.815Z,49.90
2018-06-13T06:44:45.328Z,49.60
2018-06-13T06:47:12.906Z,49.50
2018-06-13T06:49:40.481Z,49.60
2018-06-13T06:52:08.016Z,49.60
2018-06-13T06:54:35.529Z,49.60
2018-06-13T06:57:03.085Z,49.50
2018-06-13T06:59:30.612Z,49.60
2018-06-13T07:01:58.160Z,49.60
2018-06-13T07:04:26.012Z,49.50
2018-06-13T07:06:53.590Z,49.60
2018-06-13T07:09:21.140Z,49.50
2018-06-13T07:11:48.657Z,49.60
2018-06-13T07:14:16.235Z,49.50
2018-06-13T07:16:43.774Z,49.50
2018-06-13T07:19:11.317Z,49.60
2018-06-13T07:21:39.048Z,49.70
2018-06-13T07:24:06.458Z,49.50
2018-06-13T07:26:34.162Z,49.50
2018-06-13T07:29:01.829Z,49.50
2018-06-13T07:31:29.488Z,49.50
2018-06-13T07:33:57.113Z,49.50
2018-06-13T07:43:46.554Z,49.60
2018-06-13T07:46:14.080Z,49.50
2018-06-13T07:48:41.702Z,49.60
2018-06-13T07:51:09.226Z,50.20
2018-06-13T07:53:36.744Z,49.70
2018-06-13T07:56:04.379Z,49.60
2018-06-13T07:58:32.027Z,49.60
2018-06-13T08:00:59.664Z,49.70
2018-06-13T08:03:27.306Z,49.60
2018-06-13T08:05:54.961Z,49.50
2018-06-13T08:08:22.652Z,49.50
2018-06-13T08:10:50.209Z,49.60
2018-06-13T08:13:17.829Z,49.50
2018-06-13T08:15:45.605Z,49.40
2018-06-13T08:18:13.292Z,50.20
2018-06-13T08:20:40.956Z,49.50
2018-06-13T08:23:08.668Z,49.40
2018-06-13T08:25:36.301Z,49.40
2018-06-13T08:28:03.942Z,49.40
2018-06-13T08:30:31.550Z,49.40
2018-06-13T08:32:59.168Z,49.40
2018-06-13T08:35:26.739Z,49.40
2018-06-13T08:37:54.529Z,49.40
2018-06-13T08:40:22.228Z,49.40
2018-06-13T08:42:49.878Z,49.30
2018-06-13T08:45:17.547Z,49.40
2018-06-13T08:47:45.200Z,49.40
2018-06-13T08:50:12.936Z,49.30
2018-06-13T08:52:40.593Z,49.40
2018-06-13T08:55:08.200Z,49.40
2018-06-13T08:57:36.520Z,49.40
2018-06-13T09:00:04.617Z,49.50
2018-06-13T09:02:32.133Z,49.50
2018-06-13T09:04:59.717Z,49.40
2018-06-13T09:07:27.280Z,49.40
2018-06-13T09:09:54.813Z,49.40
2018-06-13T09:12:22.376Z,49.50
2018-06-13T09:14:49.907Z,49.40
2018-06-13T09:17:17.470Z,49.50
2018-06-13T09:19:45.024Z,49.40
2018-06-13T09:22:12.560Z,49.40
2018-06-13T09:24:40.090Z,49.40
2018-06-13T09:27:07.637Z,49.40
2018-06-13T09:29:35.206Z,49.40
2018-06-13T09:32:02.745Z,49.40
2018-06-13T09:34:30.309Z,49.50
2018-06-13T09:36:57.844Z,49.40
2018-06-13T09:39:25.379Z,49.40
2018-06-13T09:41:58.278Z,49.40
2018-06-13T09:44:25.882Z,49.70
2018-06-13T09:46:53.461Z,49.40
2018-06-13T09:49:20.993Z,49.40
2018-06-13T09:54:15.778Z,49.50
2018-06-13T09:56:43.752Z,49.40
2018-06-13T09:59:13.916Z,49.40
2018-06-13T10:02:18.604Z,49.40
2018-06-13T10:04:46.751Z,49.40
2018-06-13T10:07:14.288Z,49.50
2018-06-13T10:09:41.829Z,49.40
2018-06-13T10:12:09.381Z,49.40
2018-06-13T10:14:36.929Z,49.40
2018-06-13T10:17:04.461Z,49.40
2018-06-13T10:19:31.989Z,49.50
2018-06-13T10:21:59.585Z,49.40
2018-06-13T10:24:27.137Z,49.40
2018-06-13T10:26:54.660Z,49.40
2018-06-13T10:29:22.220Z,49.40
2018-06-13T10:31:49.800Z,49.80
2018-06-13T10:34:17.379Z,49.50
2018-06-13T10:36:49.009Z,49.50
2018-06-13T10:41:43.785Z,49.50
2018-06-13T10:44:11.341Z,49.40
2018-06-13T10:46:38.873Z,49.40
2018-06-13T10:49:06.561Z,49.40
2018-06-13T10:51:34.125Z,49.40
2018-06-13T10:54:01.653Z,49.40
2018-06-13T10:56:29.193Z,49.40
2018-06-13T10:58:56.748Z,49.40
2018-06-13T11:01:24.284Z,49.40
2018-06-13T11:03:51.818Z,49.40
2018-06-13T11:06:19.390Z,49.40
2018-06-13T11:08:46.986Z,49.40
2018-06-13T11:11:14.512Z,49.40
2018-06-13T11:13:42.053Z,49.40
2018-06-13T11:16:09.590Z,49.30
2018-06-13T11:18:37.176Z,49.30
2018-06-13T11:21:05.128Z,49.20
2018-06-13T11:23:32.651Z,49.20
2018-06-13T11:26:00.190Z,49.20
2018-06-13T11:28:27.723Z,49.20
2018-06-13T11:30:55.281Z,49.10
2018-06-13T11:33:22.852Z,49.10
2018-06-13T11:35:50.384Z,49.20
2018-06-13T11:38:17.921Z,49.10
2018-06-13T11:40:45.487Z,49.10
2018-06-13T11:43:13.689Z,49.10
2018-06-13T11:45:41.226Z,49.20
2018-06-13T11:48:08.913Z,49.10
2018-06-13T11:50:36.445Z,49.20
2018-06-13T11:53:03.990Z,49.10
2018-06-13T11:55:31.650Z,49.10
2018-06-13T11:57:59.218Z,49.10
2018-06-13T12:00:26.816Z,49.10
2018-06-13T12:02:54.357Z,49.20
2018-06-13T12:05:21.891Z,49.20
2018-06-13T12:07:49.469Z,49.20
2018-06-13T12:10:17.017Z,49.10
2018-06-13T12:12:44.598Z,49.10
2018-06-13T12:15:12.146Z,49.10
2018-06-13T12:17:40.153Z,49.10
2018-06-13T12:20:07.689Z,49.20
2018-06-13T12:22:35.247Z,49.10
2018-06-13T12:25:02.781Z,49.20
2018-06-13T12:27:30.319Z,49.20
2018-06-13T12:29:57.889Z,49.10
2018-06-13T12:32:25.422Z,49.00
2018-06-13T12:34:52.946Z,49.10
2018-06-13T12:37:20.802Z,49.10
2018-06-13T12:39:48.332Z,49.10
2018-06-13T12:42:15.904Z,49.00
2018-06-13T12:44:43.461Z,49.00
2018-06-13T12:47:11.007Z,48.90
2018-06-13T12:49:38.557Z,49.00
2018-06-13T12:52:06.101Z,49.00
2018-06-13T12:54:33.639Z,49.00
2018-06-13T12:57:01.140Z,49.60
2018-06-13T12:59:28.657Z,49.00
2018-06-13T13:01:56.217Z,49.00
2018-06-13T13:04:23.766Z,48.80
2018-06-13T13:06:51.511Z,49.00
2018-06-13T13:09:19.045Z,48.90
2018-06-13T13:11:46.585Z,49.50
2018-06-13T13:14:14.118Z,49.10
2018-06-13T13:16:41.652Z,48.90
2018-06-13T13:19:09.189Z,48.90
2018-06-13T13:21:37.071Z,49.50
2018-06-13T13:24:04.590Z,48.90
2018-06-13T13:26:32.121Z,48.90
2018-06-13T13:28:59.641Z,48.90
2018-06-13T13:31:27.186Z,48.90
2018-06-13T13:33:54.837Z,49.00
2018-06-13T13:36:22.381Z,49.00
2018-06-13T13:38:49.895Z,49.00
2018-06-13T13:41:17.451Z,49.00
2018-06-13T13:43:44.978Z,49.00
2018-06-13T13:46:12.554Z,49.10
2018-06-13T13:48:40.085Z,49.10
2018-06-13T13:51:07.720Z,49.00
2018-06-13T13:53:35.398Z,49.10
2018-06-13T13:56:03.010Z,49.10
2018-06-13T13:58:30.649Z,49.10
2018-06-13T14:00:58.269Z,49.10
2018-06-13T14:03:25.867Z,49.20
2018-06-13T14:05:53.412Z,49.20
2018-06-13T14:08:20.961Z,49.30
2018-06-13T14:10:48.560Z,49.30
2018-06-13T14:13:17.740Z,49.30
2018-06-13T14:15:45.278Z,49.70
2018-06-13T14:18:13.202Z,49.40
2018-06-13T14:20:43.459Z,49.30
2018-06-13T14:23:11.157Z,49.50
2018-06-13T14:25:38.741Z,49.60
2018-06-13T14:28:06.491Z,49.60
2018-06-13T14:30:34.116Z,49.60
2018-06-13T14:33:02.290Z,49.70
2018-06-13T14:35:30.013Z,49.80
2018-06-13T14:37:57.916Z,49.70
2018-06-13T14:40:25.756Z,50.00
2018-06-13T14:42:53.389Z,50.00
2018-06-13T14:45:21.068Z,50.10
2018-06-13T14:47:48.889Z,50.00
2018-06-13T15:04:04.343Z,50.00
2018-06-13T15:06:32.030Z,50.00
2018-06-13T15:25:44.605Z,49.90
2018-06-13T15:42:00.556Z,50.40
2018-06-13T15:44:28.705Z,50.50
2018-06-13T16:03:40.930Z,50.30
2018-06-13T16:06:09.168Z,50.30
2018-06-13T16:08:37.107Z,50.30
2018-06-13T16:11:05.133Z,50.30
2018-06-13T16:30:14.245Z,50.60
2018-06-13T16:32:41.832Z,50.60
2018-06-13T16:35:09.757Z,50.60
2018-06-13T16:37:37.441Z,50.70
2018-06-13T16:40:05.367Z,50.70
2018-06-13T17:04:12.098Z,50.90
2018-06-13T17:06:39.677Z,51.00
2018-06-13T17:09:07.466Z,51.60
2018-06-13T17:11:35.054Z,51.00
2018-06-13T17:14:02.696Z,50.90
2018-06-13T17:16:30.274Z,51.00
2018-06-13T17:21:25.188Z,51.10
2018-06-13T17:23:52.846Z,51.10
2018-06-13T17:50:52.507Z,51.40
2018-06-13T17:53:20.086Z,51.40
2018-06-13T17:55:47.693Z,52.10
2018-06-13T18:14:58.149Z,49.00
2018-06-13T18:17:25.813Z,49.10
2018-06-13T18:36:39.196Z,50.70
2018-06-13T18:39:08.028Z,50.70
2018-06-13T18:41:35.741Z,50.80
2018-06-13T18:52:21.333Z,50.80
2018-06-13T19:11:35.694Z,43.70
2018-06-13T19:19:28.956Z,44.10
2018-06-13T19:21:57.783Z,44.60
2018-06-13T19:27:12.574Z,44.00
2018-06-13T19:29:40.137Z,43.70
2018-06-13T19:32:08.194Z,43.70
2018-06-13T19:34:36.008Z,43.60
2018-06-13T19:56:18.935Z,46.00
2018-06-13T20:15:36.608Z,46.90
2018-06-13T20:20:12.845Z,47.00
2018-06-13T20:22:40.511Z,47.20
2018-06-13T20:25:13.397Z,47.30
2018-06-13T20:27:46.452Z,47.30
2018-06-13T20:30:19.428Z,47.30
2018-06-13T20:32:46.985Z,47.30
2018-06-13T20:35:14.553Z,47.30
2018-06-13T20:37:42.238Z,47.60
2018-06-13T20:40:09.925Z,47.50
2018-06-13T20:42:37.690Z,47.70
2018-06-13T20:45:05.439Z,47.70
2018-06-13T20:47:33.134Z,47.80
2018-06-13T20:50:00.787Z,47.90
2018-06-13T20:52:28.503Z,47.70
2018-06-13T20:54:56.091Z,48.00
2018-06-13T20:57:23.810Z,48.00
2018-06-13T20:59:51.397Z,48.00
2018-06-13T21:02:19.088Z,48.10
2018-06-13T21:04:46.664Z,48.00
2018-06-13T21:07:14.248Z,47.90
2018-06-13T21:09:41.966Z,47.80
2018-06-13T21:12:09.595Z,48.00
2018-06-13T21:14:37.355Z,48.00
2018-06-13T21:17:05.297Z,48.00
2018-06-13T21:19:33.084Z,47.90
2018-06-13T21:22:00.811Z,47.70
2018-06-13T21:24:28.500Z,47.70
2018-06-13T21:26:56.140Z,48.10
2018-06-13T21:29:23.765Z,48.10
2018-06-13T21:31:51.404Z,48.00
2018-06-13T21:36:47.070Z,48.00
2018-06-13T21:39:14.745Z,48.00
2018-06-13T21:41:42.447Z,48.20
2018-06-13T21:44:10.135Z,48.30
2018-06-13T21:46:37.856Z,48.30
2018-06-13T21:49:05.550Z,48.30
2018-06-13T21:51:33.117Z,48.40
2018-06-13T21:54:00.714Z,48.30
2018-06-13T21:56:28.436Z,48.20
2018-06-13T21:58:56.134Z,48.20
2018-06-13T22:01:23.872Z,48.30
2018-06-13T22:03:51.599Z,48.30
2018-06-13T22:06:19.251Z,48.20
2018-06-13T22:08:46.820Z,48.50
2018-06-13T22:13:41.788Z,48.30
2018-06-13T22:16:09.372Z,48.30
2018-06-13T22:18:36.961Z,48.30
2018-06-13T22:21:04.999Z,48.40
2018-06-13T22:23:32.601Z,48.50
2018-06-13T22:26:00.184Z,48.40
2018-06-13T22:28:27.756Z,48.30
2018-06-13T22:30:55.312Z,48.30
2018-06-13T22:33:22.891Z,48.30
2018-06-13T22:35:50.481Z,48.20
2018-06-13T22:38:18.111Z,48.20
2018-06-13T22:43:13.048Z,47.80
2018-06-13T22:45:40.585Z,48.00
2018-06-13T22:48:08.105Z,48.30
2018-06-13T22:50:35.626Z,48.30
2018-06-13T22:53:03.200Z,48.40
2018-06-13T22:55:30.832Z,48.30
2018-06-13T23:05:20.441Z,48.40
2018-06-13T23:07:48.189Z,48.50
2018-06-13T23:10:15.926Z,48.40
2018-06-13T23:12:43.535Z,48.30
2018-06-13T23:25:00.431Z,48.30
2018-06-13T23:27:27.991Z,48.40
2018-06-13T23:29:55.633Z,48.80
2018-06-13T23:32:23.126Z,48.40
2018-06-13T23:51:36.234Z,48.50
2018-06-13T23:54:03.816Z,48.60
2018-06-13T23:56:31.382Z,48.50
2018-06-13T23:58:58.959Z,48.40
